sensor_id;sensor_type;location;lat;lon;timestamp;temperature;humidity
12655;DHT22;6392;44.644;11.448;2024-01-27T00:02:12;3.00;99.90
12655;DHT22;6392;44.644;11.448;2024-01-27T00:04:39;2.90;99.90
12655;DHT22;6392;44.644;11.448;2024-01-27T00:07:06;2.90;99.90
12655;DHT22;6392;44.644;11.448;2024-01-27T00:09:34;2.80;99.90
12655;DHT22;6392;44.644;11.448;2024-01-27T00:12:01;2.80;99.90
12655;DHT22;6392;44.644;11.448;2024-01-27T00:14:28;2.70;99.90
12655;DHT22;6392;44.644;11.448;2024-01-27T00:16:55;2.60;99.90
12655;DHT22;6392;44.644;11.448;2024-01-27T00:19:22;2.60;99.90
12655;DHT22;6392;44.644;11.448;2024-01-27T00:21:49;2.60;99.90
12655;DHT22;6392;44.644;11.448;2024-01-27T00:24:16;2.60;99.90
12655;DHT22;6392;44.644;11.448;2024-01-27T00:26:45;2.60;99.90
12655;DHT22;6392;44.644;11.448;2024-01-27T00:29:12;2.50;99.90
12655;DHT22;6392;44.644;11.448;2024-01-27T00:31:39;2.50;99.90
12655;DHT22;6392;44.644;11.448;2024-01-27T00:34:06;2.50;99.90
12655;DHT22;6392;44.644;11.448;2024-01-27T00:36:33;2.60;99.90
12655;DHT22;6392;44.644;11.448;2024-01-27T00:39:02;2.50;99.90
12655;DHT22;6392;44.644;11.448;2024-01-27T00:41:30;2.50;99.90
12655;DHT22;6392;44.644;11.448;2024-01-27T00:43:58;2.40;99.90
12655;DHT22;6392;44.644;11.448;2024-01-27T00:46:25;2.40;99.90
12655;DHT22;6392;44.644;11.448;2024-01-27T00:48:52;2.40;99.90
12655;DHT22;6392;44.644;11.448;2024-01-27T00:51:19;2.40;99.90
12655;DHT22;6392;44.644;11.448;2024-01-27T00:53:46;2.40;99.90
12655;DHT22;6392;44.644;11.448;2024-01-27T00:56:14;2.40;99.90
12655;DHT22;6392;44.644;11.448;2024-01-27T00:58:41;2.40;99.90
12655;DHT22;6392;44.644;11.448;2024-01-27T01:01:09;2.40;99.90
12655;DHT22;6392;44.644;11.448;2024-01-27T01:03:36;2.40;99.90
12655;DHT22;6392;44.644;11.448;2024-01-27T01:06:04;2.30;99.90
12655;DHT22;6392;44.644;11.448;2024-01-27T01:08:31;2.30;99.90
12655;DHT22;6392;44.644;11.448;2024-01-27T01:10:58;2.30;99.90
12655;DHT22;6392;44.644;11.448;2024-01-27T01:13:25;2.30;99.90
12655;DHT22;6392;44.644;11.448;2024-01-27T01:15:52;2.30;99.90
12655;DHT22;6392;44.644;11.448;2024-01-27T01:18:21;2.40;99.90
12655;DHT22;6392;44.644;11.448;2024-01-27T01:20:49;2.40;99.90
12655;DHT22;6392;44.644;11.448;2024-01-27T01:23:16;2.40;99.90
12655;DHT22;6392;44.644;11.448;2024-01-27T01:25:43;2.40;99.90
12655;DHT22;6392;44.644;11.448;2024-01-27T01:28:10;2.40;99.90
12655;DHT22;6392;44.644;11.448;2024-01-27T01:30:38;2.30;99.90
12655;DHT22;6392;44.644;11.448;2024-01-27T01:33:05;2.30;99.90
12655;DHT22;6392;44.644;11.448;2024-01-27T01:35:33;2.30;99.90
12655;DHT22;6392;44.644;11.448;2024-01-27T01:38:00;2.30;99.90
12655;DHT22;6392;44.644;11.448;2024-01-27T01:40:27;2.30;99.90
12655;DHT22;6392;44.644;11.448;2024-01-27T01:42:54;2.30;99.90
12655;DHT22;6392;44.644;11.448;2024-01-27T01:45:21;2.40;99.90
12655;DHT22;6392;44.644;11.448;2024-01-27T01:47:48;2.50;99.90
12655;DHT22;6392;44.644;11.448;2024-01-27T01:50:16;2.50;99.90
12655;DHT22;6392;44.644;11.448;2024-01-27T01:52:44;2.60;99.90
12655;DHT22;6392;44.644;11.448;2024-01-27T01:55:12;2.60;99.90
12655;DHT22;6392;44.644;11.448;2024-01-27T01:57:39;2.60;99.90
12655;DHT22;6392;44.644;11.448;2024-01-27T02:00:07;2.60;99.90
12655;DHT22;6392;44.644;11.448;2024-01-27T02:02:34;2.60;99.90
12655;DHT22;6392;44.644;11.448;2024-01-27T02:05:02;2.60;99.90
12655;DHT22;6392;44.644;11.448;2024-01-27T02:07:29;2.60;99.90
12655;DHT22;6392;44.644;11.448;2024-01-27T02:09:57;2.60;99.90
12655;DHT22;6392;44.644;11.448;2024-01-27T02:12:24;2.50;99.90
12655;DHT22;6392;44.644;11.448;2024-01-27T02:14:51;2.50;99.90
12655;DHT22;6392;44.644;11.448;2024-01-27T02:17:18;2.50;99.90
12655;DHT22;6392;44.644;11.448;2024-01-27T02:19:45;2.50;99.90
12655;DHT22;6392;44.644;11.448;2024-01-27T02:22:12;2.50;99.90
12655;DHT22;6392;44.644;11.448;2024-01-27T02:24:41;2.60;99.90
12655;DHT22;6392;44.644;11.448;2024-01-27T02:27:08;2.60;99.90
12655;DHT22;6392;44.644;11.448;2024-01-27T02:29:35;2.60;99.90
12655;DHT22;6392;44.644;11.448;2024-01-27T02:32:02;2.60;99.90
12655;DHT22;6392;44.644;11.448;2024-01-27T02:34:29;2.60;99.90
12655;DHT22;6392;44.644;11.448;2024-01-27T02:36:56;2.70;99.90
12655;DHT22;6392;44.644;11.448;2024-01-27T02:39:23;2.70;99.90
12655;DHT22;6392;44.644;11.448;2024-01-27T02:41:52;2.80;99.90
12655;DHT22;6392;44.644;11.448;2024-01-27T02:44:19;2.80;99.90
12655;DHT22;6392;44.644;11.448;2024-01-27T02:46:46;2.80;99.90
12655;DHT22;6392;44.644;11.448;2024-01-27T02:49:14;2.70;99.90
12655;DHT22;6392;44.644;11.448;2024-01-27T02:51:41;2.70;99.90
12655;DHT22;6392;44.644;11.448;2024-01-27T02:54:08;2.70;99.90
12655;DHT22;6392;44.644;11.448;2024-01-27T02:56:35;2.70;99.90
12655;DHT22;6392;44.644;11.448;2024-01-27T02:59:03;2.70;99.90
12655;DHT22;6392;44.644;11.448;2024-01-27T03:01:30;2.70;99.90
12655;DHT22;6392;44.644;11.448;2024-01-27T03:03:57;2.60;99.90
12655;DHT22;6392;44.644;11.448;2024-01-27T03:06:24;2.70;99.90
12655;DHT22;6392;44.644;11.448;2024-01-27T03:08:51;2.70;99.90
12655;DHT22;6392;44.644;11.448;2024-01-27T03:11:18;2.70;99.90
12655;DHT22;6392;44.644;11.448;2024-01-27T03:13:45;2.70;99.90
12655;DHT22;6392;44.644;11.448;2024-01-27T03:16:14;2.70;99.90
12655;DHT22;6392;44.644;11.448;2024-01-27T03:18:43;2.70;99.90
12655;DHT22;6392;44.644;11.448;2024-01-27T03:21:10;2.60;99.90
12655;DHT22;6392;44.644;11.448;2024-01-27T03:23:37;2.70;99.90
12655;DHT22;6392;44.644;11.448;2024-01-27T03:26:04;2.60;99.90
12655;DHT22;6392;44.644;11.448;2024-01-27T03:28:31;2.60;99.90
12655;DHT22;6392;44.644;11.448;2024-01-27T03:30:58;2.60;99.90
12655;DHT22;6392;44.644;11.448;2024-01-27T03:33:27;2.60;99.90
12655;DHT22;6392;44.644;11.448;2024-01-27T03:35:56;2.60;99.90
12655;DHT22;6392;44.644;11.448;2024-01-27T03:38:23;2.60;99.90
12655;DHT22;6392;44.644;11.448;2024-01-27T03:40:50;2.60;99.90
12655;DHT22;6392;44.644;11.448;2024-01-27T03:43:17;2.60;99.90
12655;DHT22;6392;44.644;11.448;2024-01-27T03:45:44;2.60;99.90
12655;DHT22;6392;44.644;11.448;2024-01-27T03:48:12;2.60;99.90
12655;DHT22;6392;44.644;11.448;2024-01-27T03:50:40;2.60;99.90
12655;DHT22;6392;44.644;11.448;2024-01-27T03:53:07;2.50;99.90
12655;DHT22;6392;44.644;11.448;2024-01-27T03:55:35;2.50;99.90
12655;DHT22;6392;44.644;11.448;2024-01-27T03:58:02;2.50;99.90
12655;DHT22;6392;44.644;11.448;2024-01-27T04:00:29;2.50;99.90
12655;DHT22;6392;44.644;11.448;2024-01-27T04:02:58;2.40;99.90
12655;DHT22;6392;44.644;11.448;2024-01-27T04:05:25;2.40;99.90
12655;DHT22;6392;44.644;11.448;2024-01-27T04:07:54;2.40;99.90
12655;DHT22;6392;44.644;11.448;2024-01-27T04:10:21;2.30;99.90
12655;DHT22;6392;44.644;11.448;2024-01-27T04:12:48;2.30;99.90
12655;DHT22;6392;44.644;11.448;2024-01-27T04:15:15;2.30;99.90
12655;DHT22;6392;44.644;11.448;2024-01-27T04:17:43;2.30;99.90
12655;DHT22;6392;44.644;11.448;2024-01-27T04:20:11;2.30;99.90
12655;DHT22;6392;44.644;11.448;2024-01-27T04:22:38;2.30;99.90
12655;DHT22;6392;44.644;11.448;2024-01-27T04:25:07;2.40;99.90
12655;DHT22;6392;44.644;11.448;2024-01-27T04:27:37;2.40;99.90
12655;DHT22;6392;44.644;11.448;2024-01-27T04:30:06;2.40;99.90
12655;DHT22;6392;44.644;11.448;2024-01-27T04:32:33;2.50;99.90
12655;DHT22;6392;44.644;11.448;2024-01-27T04:35:00;2.50;99.90
12655;DHT22;6392;44.644;11.448;2024-01-27T04:37:27;2.50;99.90
12655;DHT22;6392;44.644;11.448;2024-01-27T04:39:54;2.50;99.90
12655;DHT22;6392;44.644;11.448;2024-01-27T04:42:23;2.50;99.90
12655;DHT22;6392;44.644;11.448;2024-01-27T04:44:50;2.50;99.90
12655;DHT22;6392;44.644;11.448;2024-01-27T04:47:17;2.50;99.90
12655;DHT22;6392;44.644;11.448;2024-01-27T04:49:44;2.50;99.90
12655;DHT22;6392;44.644;11.448;2024-01-27T04:52:11;2.50;99.90
12655;DHT22;6392;44.644;11.448;2024-01-27T04:54:38;2.40;99.90
12655;DHT22;6392;44.644;11.448;2024-01-27T04:57:05;2.40;99.90
12655;DHT22;6392;44.644;11.448;2024-01-27T04:59:33;2.40;99.90
12655;DHT22;6392;44.644;11.448;2024-01-27T05:02:01;2.40;99.90
12655;DHT22;6392;44.644;11.448;2024-01-27T05:04:28;2.40;99.90
12655;DHT22;6392;44.644;11.448;2024-01-27T05:06:55;2.40;99.90
12655;DHT22;6392;44.644;11.448;2024-01-27T05:09:22;2.40;99.90
12655;DHT22;6392;44.644;11.448;2024-01-27T05:11:50;2.40;99.90
12655;DHT22;6392;44.644;11.448;2024-01-27T05:14:18;2.40;99.90
12655;DHT22;6392;44.644;11.448;2024-01-27T05:16:47;2.40;99.90
12655;DHT22;6392;44.644;11.448;2024-01-27T05:19:14;2.40;99.90
12655;DHT22;6392;44.644;11.448;2024-01-27T05:21:42;2.40;99.90
12655;DHT22;6392;44.644;11.448;2024-01-27T05:24:09;2.40;99.90
12655;DHT22;6392;44.644;11.448;2024-01-27T05:26:36;2.40;99.90
12655;DHT22;6392;44.644;11.448;2024-01-27T05:29:03;2.30;99.90
12655;DHT22;6392;44.644;11.448;2024-01-27T05:31:30;2.30;99.90
12655;DHT22;6392;44.644;11.448;2024-01-27T05:33:59;2.30;99.90
12655;DHT22;6392;44.644;11.448;2024-01-27T05:36:26;2.30;99.90
12655;DHT22;6392;44.644;11.448;2024-01-27T05:38:53;2.20;99.90
12655;DHT22;6392;44.644;11.448;2024-01-27T05:41:20;2.20;99.90
12655;DHT22;6392;44.644;11.448;2024-01-27T05:43:47;2.10;99.90
12655;DHT22;6392;44.644;11.448;2024-01-27T05:46:14;2.10;99.90
12655;DHT22;6392;44.644;11.448;2024-01-27T05:48:41;2.10;99.90
12655;DHT22;6392;44.644;11.448;2024-01-27T05:51:10;2.10;99.90
12655;DHT22;6392;44.644;11.448;2024-01-27T05:53:37;2.10;99.90
12655;DHT22;6392;44.644;11.448;2024-01-27T05:56:05;2.20;99.90
12655;DHT22;6392;44.644;11.448;2024-01-27T05:58:32;2.20;99.90
12655;DHT22;6392;44.644;11.448;2024-01-27T06:00:59;2.20;99.90
12655;DHT22;6392;44.644;11.448;2024-01-27T06:03:26;2.20;99.90
12655;DHT22;6392;44.644;11.448;2024-01-27T06:05:53;2.20;99.90
12655;DHT22;6392;44.644;11.448;2024-01-27T06:08:22;2.20;99.90
12655;DHT22;6392;44.644;11.448;2024-01-27T06:10:49;2.20;99.90
12655;DHT22;6392;44.644;11.448;2024-01-27T06:13:16;2.20;99.90
12655;DHT22;6392;44.644;11.448;2024-01-27T06:15:43;2.20;99.90
12655;DHT22;6392;44.644;11.448;2024-01-27T06:18:10;2.20;99.90
12655;DHT22;6392;44.644;11.448;2024-01-27T06:20:37;2.10;99.90
12655;DHT22;6392;44.644;11.448;2024-01-27T06:23:05;2.10;99.90
12655;DHT22;6392;44.644;11.448;2024-01-27T06:25:34;2.10;99.90
12655;DHT22;6392;44.644;11.448;2024-01-27T06:28:01;2.10;99.90
12655;DHT22;6392;44.644;11.448;2024-01-27T06:30:28;2.10;99.90
12655;DHT22;6392;44.644;11.448;2024-01-27T06:32:55;2.10;99.90
12655;DHT22;6392;44.644;11.448;2024-01-27T06:35:22;2.10;99.90
12655;DHT22;6392;44.644;11.448;2024-01-27T06:37:49;2.10;99.90
12655;DHT22;6392;44.644;11.448;2024-01-27T06:40:17;2.10;99.90
12655;DHT22;6392;44.644;11.448;2024-01-27T06:42:45;2.10;99.90
12655;DHT22;6392;44.644;11.448;2024-01-27T06:45:12;2.10;99.90
12655;DHT22;6392;44.644;11.448;2024-01-27T06:47:40;2.20;99.90
12655;DHT22;6392;44.644;11.448;2024-01-27T06:50:07;2.20;99.90
12655;DHT22;6392;44.644;11.448;2024-01-27T06:52:35;2.20;99.90
12655;DHT22;6392;44.644;11.448;2024-01-27T06:55:02;2.20;99.90
12655;DHT22;6392;44.644;11.448;2024-01-27T06:57:30;2.30;99.90
12655;DHT22;6392;44.644;11.448;2024-01-27T06:59:58;2.30;99.90
12655;DHT22;6392;44.644;11.448;2024-01-27T07:02:25;2.30;99.90
12655;DHT22;6392;44.644;11.448;2024-01-27T07:04:53;2.30;99.90
12655;DHT22;6392;44.644;11.448;2024-01-27T07:07:23;2.30;99.90
12655;DHT22;6392;44.644;11.448;2024-01-27T07:09:51;2.30;99.90
12655;DHT22;6392;44.644;11.448;2024-01-27T07:12:18;2.30;99.90
12655;DHT22;6392;44.644;11.448;2024-01-27T07:14:45;2.30;99.90
12655;DHT22;6392;44.644;11.448;2024-01-27T07:17:13;2.30;99.90
12655;DHT22;6392;44.644;11.448;2024-01-27T07:19:40;2.30;99.90
12655;DHT22;6392;44.644;11.448;2024-01-27T07:22:08;2.30;99.90
12655;DHT22;6392;44.644;11.448;2024-01-27T07:24:35;2.40;99.90
12655;DHT22;6392;44.644;11.448;2024-01-27T07:27:02;2.60;99.90
12655;DHT22;6392;44.644;11.448;2024-01-27T07:29:29;2.60;99.90
12655;DHT22;6392;44.644;11.448;2024-01-27T07:31:57;2.70;99.90
12655;DHT22;6392;44.644;11.448;2024-01-27T07:34:25;2.80;99.90
12655;DHT22;6392;44.644;11.448;2024-01-27T07:36:52;2.80;99.90
12655;DHT22;6392;44.644;11.448;2024-01-27T07:39:19;2.90;99.90
12655;DHT22;6392;44.644;11.448;2024-01-27T07:41:46;2.90;99.90
12655;DHT22;6392;44.644;11.448;2024-01-27T07:44:15;3.00;99.90
12655;DHT22;6392;44.644;11.448;2024-01-27T07:46:42;3.10;99.90
12655;DHT22;6392;44.644;11.448;2024-01-27T07:49:09;3.10;99.90
12655;DHT22;6392;44.644;11.448;2024-01-27T07:51:39;3.10;99.90
12655;DHT22;6392;44.644;11.448;2024-01-27T07:54:06;3.20;99.90
12655;DHT22;6392;44.644;11.448;2024-01-27T07:56:33;3.20;99.90
12655;DHT22;6392;44.644;11.448;2024-01-27T07:59:00;3.30;99.90
12655;DHT22;6392;44.644;11.448;2024-01-27T08:01:27;3.30;99.90
12655;DHT22;6392;44.644;11.448;2024-01-27T08:03:54;3.40;99.90
12655;DHT22;6392;44.644;11.448;2024-01-27T08:06:27;3.40;99.90
12655;DHT22;6392;44.644;11.448;2024-01-27T08:08:56;3.50;99.90
12655;DHT22;6392;44.644;11.448;2024-01-27T08:11:23;3.60;99.90
12655;DHT22;6392;44.644;11.448;2024-01-27T08:13:52;3.60;99.90
12655;DHT22;6392;44.644;11.448;2024-01-27T08:16:19;3.70;99.90
12655;DHT22;6392;44.644;11.448;2024-01-27T08:18:47;3.80;99.90
12655;DHT22;6392;44.644;11.448;2024-01-27T08:21:14;3.90;99.90
12655;DHT22;6392;44.644;11.448;2024-01-27T08:23:41;4.00;99.90
12655;DHT22;6392;44.644;11.448;2024-01-27T08:26:10;4.00;99.90
12655;DHT22;6392;44.644;11.448;2024-01-27T08:28:37;4.10;99.90
12655;DHT22;6392;44.644;11.448;2024-01-27T08:31:04;4.20;99.90
12655;DHT22;6392;44.644;11.448;2024-01-27T08:33:31;4.20;99.90
12655;DHT22;6392;44.644;11.448;2024-01-27T08:35:59;4.30;99.90
12655;DHT22;6392;44.644;11.448;2024-01-27T08:38:27;4.40;99.90
12655;DHT22;6392;44.644;11.448;2024-01-27T08:40:54;4.50;99.90
12655;DHT22;6392;44.644;11.448;2024-01-27T08:43:23;4.60;99.90
12655;DHT22;6392;44.644;11.448;2024-01-27T08:45:50;4.60;99.90
12655;DHT22;6392;44.644;11.448;2024-01-27T08:48:17;4.70;99.90
12655;DHT22;6392;44.644;11.448;2024-01-27T08:50:44;4.80;99.90
12655;DHT22;6392;44.644;11.448;2024-01-27T08:53:11;4.80;99.90
12655;DHT22;6392;44.644;11.448;2024-01-27T08:55:38;4.80;99.90
12655;DHT22;6392;44.644;11.448;2024-01-27T08:58:05;4.90;99.90
12655;DHT22;6392;44.644;11.448;2024-01-27T09:00:33;5.10;99.90
12655;DHT22;6392;44.644;11.448;2024-01-27T09:03:00;5.10;99.90
12655;DHT22;6392;44.644;11.448;2024-01-27T09:05:29;5.20;99.90
12655;DHT22;6392;44.644;11.448;2024-01-27T09:07:56;5.20;99.90
12655;DHT22;6392;44.644;11.448;2024-01-27T09:10:23;5.30;99.90
12655;DHT22;6392;44.644;11.448;2024-01-27T09:12:50;5.30;99.90
12655;DHT22;6392;44.644;11.448;2024-01-27T09:15:17;5.40;99.90
12655;DHT22;6392;44.644;11.448;2024-01-27T09:17:45;5.40;99.90
12655;DHT22;6392;44.644;11.448;2024-01-27T09:20:14;5.40;99.90
12655;DHT22;6392;44.644;11.448;2024-01-27T09:22:41;5.40;99.90
12655;DHT22;6392;44.644;11.448;2024-01-27T09:25:10;5.50;99.90
12655;DHT22;6392;44.644;11.448;2024-01-27T09:27:37;5.40;99.90
12655;DHT22;6392;44.644;11.448;2024-01-27T09:30:05;5.40;99.90
12655;DHT22;6392;44.644;11.448;2024-01-27T09:32:33;5.40;99.90
12655;DHT22;6392;44.644;11.448;2024-01-27T09:35:01;5.50;99.90
12655;DHT22;6392;44.644;11.448;2024-01-27T09:37:28;5.50;99.90
12655;DHT22;6392;44.644;11.448;2024-01-27T09:39:56;5.60;99.90
12655;DHT22;6392;44.644;11.448;2024-01-27T09:42:23;5.60;99.90
12655;DHT22;6392;44.644;11.448;2024-01-27T09:44:51;5.70;99.90
12655;DHT22;6392;44.644;11.448;2024-01-27T09:47:20;5.80;99.90
12655;DHT22;6392;44.644;11.448;2024-01-27T09:49:48;5.80;99.90
12655;DHT22;6392;44.644;11.448;2024-01-27T09:52:17;5.90;99.90
12655;DHT22;6392;44.644;11.448;2024-01-27T09:54:44;5.90;99.90
12655;DHT22;6392;44.644;11.448;2024-01-27T09:57:11;5.90;99.90
12655;DHT22;6392;44.644;11.448;2024-01-27T09:59:41;6.00;99.90
12655;DHT22;6392;44.644;11.448;2024-01-27T10:02:11;6.10;99.90
12655;DHT22;6392;44.644;11.448;2024-01-27T10:04:39;6.10;99.90
12655;DHT22;6392;44.644;11.448;2024-01-27T10:07:07;6.20;99.90
12655;DHT22;6392;44.644;11.448;2024-01-27T10:09:36;6.30;99.90
12655;DHT22;6392;44.644;11.448;2024-01-27T10:12:03;6.30;99.90
12655;DHT22;6392;44.644;11.448;2024-01-27T10:14:38;6.40;99.90
12655;DHT22;6392;44.644;11.448;2024-01-27T10:17:05;6.50;99.90
12655;DHT22;6392;44.644;11.448;2024-01-27T10:19:35;6.50;99.90
12655;DHT22;6392;44.644;11.448;2024-01-27T10:22:03;6.50;99.90
12655;DHT22;6392;44.644;11.448;2024-01-27T10:24:31;6.60;99.90
12655;DHT22;6392;44.644;11.448;2024-01-27T10:27:02;6.70;99.90
12655;DHT22;6392;44.644;11.448;2024-01-27T10:29:30;6.80;99.90
12655;DHT22;6392;44.644;11.448;2024-01-27T10:32:07;6.80;99.90
12655;DHT22;6392;44.644;11.448;2024-01-27T10:34:34;6.90;99.90
12655;DHT22;6392;44.644;11.448;2024-01-27T10:37:01;7.00;99.90
12655;DHT22;6392;44.644;11.448;2024-01-27T10:39:28;7.00;99.90
12655;DHT22;6392;44.644;11.448;2024-01-27T10:41:55;7.10;99.90
12655;DHT22;6392;44.644;11.448;2024-01-27T10:44:25;7.20;99.90
12655;DHT22;6392;44.644;11.448;2024-01-27T10:46:54;7.30;99.90
12655;DHT22;6392;44.644;11.448;2024-01-27T10:49:24;7.40;99.90
12655;DHT22;6392;44.644;11.448;2024-01-27T10:51:54;7.30;99.90
12655;DHT22;6392;44.644;11.448;2024-01-27T10:54:24;7.30;99.90
12655;DHT22;6392;44.644;11.448;2024-01-27T10:56:54;7.30;99.90
12655;DHT22;6392;44.644;11.448;2024-01-27T10:59:25;7.20;99.90
12655;DHT22;6392;44.644;11.448;2024-01-27T11:01:52;7.20;99.90
12655;DHT22;6392;44.644;11.448;2024-01-27T11:04:21;7.10;99.90
12655;DHT22;6392;44.644;11.448;2024-01-27T11:06:49;7.00;99.90
12655;DHT22;6392;44.644;11.448;2024-01-27T11:09:17;7.00;99.90
12655;DHT22;6392;44.644;11.448;2024-01-27T11:11:45;7.00;99.90
12655;DHT22;6392;44.644;11.448;2024-01-27T11:14:13;7.00;99.90
12655;DHT22;6392;44.644;11.448;2024-01-27T11:16:42;7.10;99.90
12655;DHT22;6392;44.644;11.448;2024-01-27T11:19:12;7.10;99.90
12655;DHT22;6392;44.644;11.448;2024-01-27T11:21:40;7.20;99.90
12655;DHT22;6392;44.644;11.448;2024-01-27T11:24:14;7.20;99.90
12655;DHT22;6392;44.644;11.448;2024-01-27T11:26:41;7.20;99.90
12655;DHT22;6392;44.644;11.448;2024-01-27T11:29:09;7.20;99.90
12655;DHT22;6392;44.644;11.448;2024-01-27T11:31:46;7.30;99.90
12655;DHT22;6392;44.644;11.448;2024-01-27T11:34:14;7.40;99.90
12655;DHT22;6392;44.644;11.448;2024-01-27T11:36:44;7.40;99.90
12655;DHT22;6392;44.644;11.448;2024-01-27T11:39:24;7.50;99.90
12655;DHT22;6392;44.644;11.448;2024-01-27T11:41:52;7.50;99.90
12655;DHT22;6392;44.644;11.448;2024-01-27T11:44:19;7.60;99.90
12655;DHT22;6392;44.644;11.448;2024-01-27T11:46:48;7.70;99.90
12655;DHT22;6392;44.644;11.448;2024-01-27T11:49:16;7.70;99.90
12655;DHT22;6392;44.644;11.448;2024-01-27T11:51:44;7.70;99.90
12655;DHT22;6392;44.644;11.448;2024-01-27T11:54:11;7.80;99.90
12655;DHT22;6392;44.644;11.448;2024-01-27T11:56:38;7.90;99.90
12655;DHT22;6392;44.644;11.448;2024-01-27T11:59:06;7.90;99.90
12655;DHT22;6392;44.644;11.448;2024-01-27T12:01:33;8.00;99.90
12655;DHT22;6392;44.644;11.448;2024-01-27T12:04:03;8.00;99.90
12655;DHT22;6392;44.644;11.448;2024-01-27T12:06:30;8.10;99.90
12655;DHT22;6392;44.644;11.448;2024-01-27T12:08:58;8.20;99.90
12655;DHT22;6392;44.644;11.448;2024-01-27T12:11:25;8.10;99.90
12655;DHT22;6392;44.644;11.448;2024-01-27T12:13:53;8.20;99.90
12655;DHT22;6392;44.644;11.448;2024-01-27T12:16:22;8.20;99.90
12655;DHT22;6392;44.644;11.448;2024-01-27T12:18:52;8.30;99.90
12655;DHT22;6392;44.644;11.448;2024-01-27T12:21:21;8.30;99.90
12655;DHT22;6392;44.644;11.448;2024-01-27T12:23:53;8.30;99.90
12655;DHT22;6392;44.644;11.448;2024-01-27T12:26:21;8.40;99.90
12655;DHT22;6392;44.644;11.448;2024-01-27T12:28:48;8.50;99.90
12655;DHT22;6392;44.644;11.448;2024-01-27T12:31:16;8.50;99.90
12655;DHT22;6392;44.644;11.448;2024-01-27T12:33:50;8.60;99.90
12655;DHT22;6392;44.644;11.448;2024-01-27T12:36:18;8.60;99.90
12655;DHT22;6392;44.644;11.448;2024-01-27T12:38:58;8.60;99.90
12655;DHT22;6392;44.644;11.448;2024-01-27T12:41:25;8.50;99.90
12655;DHT22;6392;44.644;11.448;2024-01-27T12:43:53;8.50;99.90
12655;DHT22;6392;44.644;11.448;2024-01-27T12:46:20;8.60;99.90
12655;DHT22;6392;44.644;11.448;2024-01-27T12:48:47;8.60;99.90
12655;DHT22;6392;44.644;11.448;2024-01-27T12:51:15;8.70;99.90
12655;DHT22;6392;44.644;11.448;2024-01-27T12:53:43;8.80;99.90
12655;DHT22;6392;44.644;11.448;2024-01-27T12:56:13;8.80;99.90
12655;DHT22;6392;44.644;11.448;2024-01-27T12:58:41;8.80;99.90
12655;DHT22;6392;44.644;11.448;2024-01-27T13:01:09;9.00;99.90
12655;DHT22;6392;44.644;11.448;2024-01-27T13:03:36;9.10;99.90
12655;DHT22;6392;44.644;11.448;2024-01-27T13:06:04;9.20;99.90
12655;DHT22;6392;44.644;11.448;2024-01-27T13:08:31;9.30;99.90
12655;DHT22;6392;44.644;11.448;2024-01-27T13:10:59;9.40;99.90
12655;DHT22;6392;44.644;11.448;2024-01-27T13:13:27;9.50;99.90
12655;DHT22;6392;44.644;11.448;2024-01-27T13:15:54;9.60;99.90
12655;DHT22;6392;44.644;11.448;2024-01-27T13:18:21;9.70;99.90
12655;DHT22;6392;44.644;11.448;2024-01-27T13:20:48;9.80;99.90
12655;DHT22;6392;44.644;11.448;2024-01-27T13:23:15;9.90;99.90
12655;DHT22;6392;44.644;11.448;2024-01-27T13:25:42;9.90;99.90
12655;DHT22;6392;44.644;11.448;2024-01-27T13:28:09;10.00;99.90
12655;DHT22;6392;44.644;11.448;2024-01-27T13:30:40;10.10;99.90
12655;DHT22;6392;44.644;11.448;2024-01-27T13:33:07;10.20;99.90
12655;DHT22;6392;44.644;11.448;2024-01-27T13:35:34;10.30;99.90
12655;DHT22;6392;44.644;11.448;2024-01-27T13:38:01;10.40;99.90
12655;DHT22;6392;44.644;11.448;2024-01-27T13:40:29;10.40;99.90
12655;DHT22;6392;44.644;11.448;2024-01-27T13:42:56;10.50;99.90
12655;DHT22;6392;44.644;11.448;2024-01-27T13:45:23;10.60;99.90
12655;DHT22;6392;44.644;11.448;2024-01-27T13:47:52;10.60;99.90
12655;DHT22;6392;44.644;11.448;2024-01-27T13:50:19;10.70;99.90
12655;DHT22;6392;44.644;11.448;2024-01-27T13:52:46;10.90;99.90
12655;DHT22;6392;44.644;11.448;2024-01-27T13:55:13;10.90;99.90
12655;DHT22;6392;44.644;11.448;2024-01-27T13:57:41;11.00;99.90
12655;DHT22;6392;44.644;11.448;2024-01-27T14:00:08;11.10;99.90
12655;DHT22;6392;44.644;11.448;2024-01-27T14:02:36;11.20;99.90
12655;DHT22;6392;44.644;11.448;2024-01-27T14:05:05;11.30;99.90
12655;DHT22;6392;44.644;11.448;2024-01-27T14:07:32;11.40;99.90
12655;DHT22;6392;44.644;11.448;2024-01-27T14:10:00;11.40;99.90
12655;DHT22;6392;44.644;11.448;2024-01-27T14:12:27;11.40;99.90
12655;DHT22;6392;44.644;11.448;2024-01-27T14:15:03;11.50;99.90
12655;DHT22;6392;44.644;11.448;2024-01-27T14:17:32;11.50;99.90
12655;DHT22;6392;44.644;11.448;2024-01-27T14:19:59;11.40;99.90
12655;DHT22;6392;44.644;11.448;2024-01-27T14:22:28;11.40;99.90
12655;DHT22;6392;44.644;11.448;2024-01-27T14:24:55;11.50;99.90
12655;DHT22;6392;44.644;11.448;2024-01-27T14:27:22;11.50;99.90
12655;DHT22;6392;44.644;11.448;2024-01-27T14:29:52;11.50;99.90
12655;DHT22;6392;44.644;11.448;2024-01-27T14:32:20;11.50;99.90
12655;DHT22;6392;44.644;11.448;2024-01-27T14:34:47;11.40;99.90
12655;DHT22;6392;44.644;11.448;2024-01-27T14:37:15;11.40;99.90
12655;DHT22;6392;44.644;11.448;2024-01-27T14:39:44;11.30;99.90
12655;DHT22;6392;44.644;11.448;2024-01-27T14:42:12;11.30;99.90
12655;DHT22;6392;44.644;11.448;2024-01-27T14:44:39;11.30;99.90
12655;DHT22;6392;44.644;11.448;2024-01-27T14:47:08;11.30;99.90
12655;DHT22;6392;44.644;11.448;2024-01-27T14:49:35;11.20;99.90
12655;DHT22;6392;44.644;11.448;2024-01-27T14:52:04;11.40;99.90
12655;DHT22;6392;44.644;11.448;2024-01-27T14:54:32;11.40;99.90
12655;DHT22;6392;44.644;11.448;2024-01-27T14:57:01;11.20;99.90
12655;DHT22;6392;44.644;11.448;2024-01-27T14:59:29;11.10;99.90
12655;DHT22;6392;44.644;11.448;2024-01-27T15:01:56;10.90;99.90
12655;DHT22;6392;44.644;11.448;2024-01-27T15:04:24;10.70;99.90
12655;DHT22;6392;44.644;11.448;2024-01-27T15:06:52;10.50;99.90
12655;DHT22;6392;44.644;11.448;2024-01-27T15:09:20;10.30;99.90
12655;DHT22;6392;44.644;11.448;2024-01-27T15:11:48;10.20;99.90
12655;DHT22;6392;44.644;11.448;2024-01-27T15:14:17;9.90;99.90
12655;DHT22;6392;44.644;11.448;2024-01-27T15:16:45;9.70;99.90
12655;DHT22;6392;44.644;11.448;2024-01-27T15:19:13;9.50;99.90
12655;DHT22;6392;44.644;11.448;2024-01-27T15:21:40;9.30;99.90
12655;DHT22;6392;44.644;11.448;2024-01-27T15:24:07;9.10;99.90
12655;DHT22;6392;44.644;11.448;2024-01-27T15:26:34;8.90;99.90
12655;DHT22;6392;44.644;11.448;2024-01-27T15:29:02;8.80;99.90
12655;DHT22;6392;44.644;11.448;2024-01-27T15:31:30;8.70;99.90
12655;DHT22;6392;44.644;11.448;2024-01-27T15:33:57;8.60;99.90
12655;DHT22;6392;44.644;11.448;2024-01-27T15:36:24;8.60;99.90
12655;DHT22;6392;44.644;11.448;2024-01-27T15:38:51;8.50;99.90
12655;DHT22;6392;44.644;11.448;2024-01-27T15:41:18;8.50;99.90
12655;DHT22;6392;44.644;11.448;2024-01-27T15:43:45;8.50;99.90
12655;DHT22;6392;44.644;11.448;2024-01-27T15:46:15;8.50;99.90
12655;DHT22;6392;44.644;11.448;2024-01-27T15:48:43;8.50;99.90